sensor_id;sensor_type;location;lat;lon;timestamp;temperature;humidity
43862;DHT22;29510;52.140;5.034;2022-09-27T00:01:47;10.30;99.90
43862;DHT22;29510;52.140;5.034;2022-09-27T00:11:48;10.30;99.90
43862;DHT22;29510;52.140;5.034;2022-09-27T00:21:50;10.30;99.90
43862;DHT22;29510;52.140;5.034;2022-09-27T00:31:51;10.30;99.90
43862;DHT22;29510;52.140;5.034;2022-09-27T00:41:52;10.20;99.90
43862;DHT22;29510;52.140;5.034;2022-09-27T00:51:56;10.10;99.90
43862;DHT22;29510;52.140;5.034;2022-09-27T01:01:59;10.00;99.90
43862;DHT22;29510;52.140;5.034;2022-09-27T01:22:47;10.00;99.90
43862;DHT22;29510;52.140;5.034;2022-09-27T01:33:09;9.90;99.90
43862;DHT22;29510;52.140;5.034;2022-09-27T01:43:18;9.70;99.90
43862;DHT22;29510;52.140;5.034;2022-09-27T01:53:26;9.50;99.90
43862;DHT22;29510;52.140;5.034;2022-09-27T02:03:35;9.30;99.90
43862;DHT22;29510;52.140;5.034;2022-09-27T02:13:45;9.20;99.90
43862;DHT22;29510;52.140;5.034;2022-09-27T02:23:52;9.20;99.90
43862;DHT22;29510;52.140;5.034;2022-09-27T02:34:13;9.20;99.90
43862;DHT22;29510;52.140;5.034;2022-09-27T02:44:15;9.10;99.90
43862;DHT22;29510;52.140;5.034;2022-09-27T02:54:23;9.10;99.90
43862;DHT22;29510;52.140;5.034;2022-09-27T03:04:35;8.90;99.90
43862;DHT22;29510;52.140;5.034;2022-09-27T03:14:37;9.00;99.90
43862;DHT22;29510;52.140;5.034;2022-09-27T03:24:38;9.00;99.90
43862;DHT22;29510;52.140;5.034;2022-09-27T03:34:39;9.00;99.90
43862;DHT22;29510;52.140;5.034;2022-09-27T03:44:40;9.00;99.90
43862;DHT22;29510;52.140;5.034;2022-09-27T03:54:41;8.80;99.90
43862;DHT22;29510;52.140;5.034;2022-09-27T04:04:43;8.60;99.90
43862;DHT22;29510;52.140;5.034;2022-09-27T04:14:44;8.60;99.90
43862;DHT22;29510;52.140;5.034;2022-09-27T04:24:45;8.70;99.90
43862;DHT22;29510;52.140;5.034;2022-09-27T04:34:46;8.70;99.90
43862;DHT22;29510;52.140;5.034;2022-09-27T04:45:06;8.60;99.90
43862;DHT22;29510;52.140;5.034;2022-09-27T04:55:08;8.60;99.90
43862;DHT22;29510;52.140;5.034;2022-09-27T05:05:09;8.70;99.90
43862;DHT22;29510;52.140;5.034;2022-09-27T05:15:11;8.80;99.90
43862;DHT22;29510;52.140;5.034;2022-09-27T05:25:12;8.80;99.90
43862;DHT22;29510;52.140;5.034;2022-09-27T05:35:13;8.70;99.90
43862;DHT22;29510;52.140;5.034;2022-09-27T05:45:16;8.80;99.90
43862;DHT22;29510;52.140;5.034;2022-09-27T05:55:17;8.90;99.90
43862;DHT22;29510;52.140;5.034;2022-09-27T06:05:18;9.00;99.90
43862;DHT22;29510;52.140;5.034;2022-09-27T06:15:20;9.10;99.90
43862;DHT22;29510;52.140;5.034;2022-09-27T06:25:21;9.20;99.90
43862;DHT22;29510;52.140;5.034;2022-09-27T06:35:22;9.20;99.90
43862;DHT22;29510;52.140;5.034;2022-09-27T06:45:24;9.30;99.90
43862;DHT22;29510;52.140;5.034;2022-09-27T06:55:26;9.40;99.90
43862;DHT22;29510;52.140;5.034;2022-09-27T07:05:27;9.50;99.90
43862;DHT22;29510;52.140;5.034;2022-09-27T07:15:29;9.70;99.90
43862;DHT22;29510;52.140;5.034;2022-09-27T07:25:30;9.90;99.90
43862;DHT22;29510;52.140;5.034;2022-09-27T07:35:32;10.10;99.90
43862;DHT22;29510;52.140;5.034;2022-09-27T07:45:33;10.10;99.90
43862;DHT22;29510;52.140;5.034;2022-09-27T07:55:34;10.20;99.90
43862;DHT22;29510;52.140;5.034;2022-09-27T08:05:35;10.00;99.90
43862;DHT22;29510;52.140;5.034;2022-09-27T08:15:36;9.90;99.90
43862;DHT22;29510;52.140;5.034;2022-09-27T08:25:40;9.80;99.90
43862;DHT22;29510;52.140;5.034;2022-09-27T08:35:42;9.50;99.90
43862;DHT22;29510;52.140;5.034;2022-09-27T08:46:04;9.40;99.90
43862;DHT22;29510;52.140;5.034;2022-09-27T08:56:08;9.40;99.90
43862;DHT22;29510;52.140;5.034;2022-09-27T09:16:34;9.20;99.90
43862;DHT22;29510;52.140;5.034;2022-09-27T09:37:04;9.30;99.90
43862;DHT22;29510;52.140;5.034;2022-09-27T09:47:19;9.50;99.90
43862;DHT22;29510;52.140;5.034;2022-09-27T09:57:27;9.50;99.90
43862;DHT22;29510;52.140;5.034;2022-09-27T10:07:31;9.40;99.90
43862;DHT22;29510;52.140;5.034;2022-09-27T10:17:41;9.60;99.90
43862;DHT22;29510;52.140;5.034;2022-09-27T10:27:47;9.80;99.90
43862;DHT22;29510;52.140;5.034;2022-09-27T10:37:48;9.80;99.90
43862;DHT22;29510;52.140;5.034;2022-09-27T10:47:49;9.90;99.90
43862;DHT22;29510;52.140;5.034;2022-09-27T10:57:52;9.80;99.90
43862;DHT22;29510;52.140;5.034;2022-09-27T11:07:57;9.80;99.90
43862;DHT22;29510;52.140;5.034;2022-09-27T11:49:33;9.60;99.90
43862;DHT22;29510;52.140;5.034;2022-09-27T12:10:17;9.30;99.90
43862;DHT22;29510;52.140;5.034;2022-09-27T12:20:27;9.20;99.90
43862;DHT22;29510;52.140;5.034;2022-09-27T12:30:33;9.10;99.90
43862;DHT22;29510;52.140;5.034;2022-09-27T12:40:43;9.00;99.90
43862;DHT22;29510;52.140;5.034;2022-09-27T12:50:56;9.20;99.90
43862;DHT22;29510;52.140;5.034;2022-09-27T13:11:26;9.70;99.90
43862;DHT22;29510;52.140;5.034;2022-09-27T13:21:53;10.00;99.90
43862;DHT22;29510;52.140;5.034;2022-09-27T13:42:05;12.60;99.90
43862;DHT22;29510;52.140;5.034;2022-09-27T13:52:24;12.20;99.90
43862;DHT22;29510;52.140;5.034;2022-09-27T14:03:00;11.80;99.90
43862;DHT22;29510;52.140;5.034;2022-09-27T14:13:03;11.20;99.90
43862;DHT22;29510;52.140;5.034;2022-09-27T14:23:11;10.80;99.90
43862;DHT22;29510;52.140;5.034;2022-09-27T14:33:31;10.80;99.90
43862;DHT22;29510;52.140;5.034;2022-09-27T14:43:34;11.00;99.90
43862;DHT22;29510;52.140;5.034;2022-09-27T14:53:43;11.10;99.90
43862;DHT22;29510;52.140;5.034;2022-09-27T15:03:46;11.10;99.90
43862;DHT22;29510;52.140;5.034;2022-09-27T15:13:50;11.10;99.90
43862;DHT22;29510;52.140;5.034;2022-09-27T15:23:53;11.10;99.90
43862;DHT22;29510;52.140;5.034;2022-09-27T15:33:56;11.10;99.90
43862;DHT22;29510;52.140;5.034;2022-09-27T15:43:57;11.10;99.90
43862;DHT22;29510;52.140;5.034;2022-09-27T15:53:58;11.00;99.90
43862;DHT22;29510;52.140;5.034;2022-09-27T16:03:59;10.90;99.90
43862;DHT22;29510;52.140;5.034;2022-09-27T16:14:00;10.60;99.90
43862;DHT22;29510;52.140;5.034;2022-09-27T16:24:01;10.50;99.90
43862;DHT22;29510;52.140;5.034;2022-09-27T16:34:03;10.40;99.90
43862;DHT22;29510;52.140;5.034;2022-09-27T16:44:05;10.20;99.90
43862;DHT22;29510;52.140;5.034;2022-09-27T16:54:07;10.20;99.90
43862;DHT22;29510;52.140;5.034;2022-09-27T17:04:08;10.20;99.90
43862;DHT22;29510;52.140;5.034;2022-09-27T17:14:13;10.20;99.90
43862;DHT22;29510;52.140;5.034;2022-09-27T17:24:16;10.10;99.90
43862;DHT22;29510;52.140;5.034;2022-09-27T17:34:17;9.90;99.90
43862;DHT22;29510;52.140;5.034;2022-09-27T17:44:18;10.00;99.90
43862;DHT22;29510;52.140;5.034;2022-09-27T17:54:21;9.90;99.90
43862;DHT22;29510;52.140;5.034;2022-09-27T18:04:23;9.80;99.90
43862;DHT22;29510;52.140;5.034;2022-09-27T18:14:24;9.80;99.90
43862;DHT22;29510;52.140;5.034;2022-09-27T18:24:26;9.60;99.90
43862;DHT22;29510;52.140;5.034;2022-09-27T18:34:27;9.50;99.90
43862;DHT22;29510;52.140;5.034;2022-09-27T18:44:28;9.50;99.90
43862;DHT22;29510;52.140;5.034;2022-09-27T18:54:29;9.40;99.90
43862;DHT22;29510;52.140;5.034;2022-09-27T19:04:30;9.40;99.90
43862;DHT22;29510;52.140;5.034;2022-09-27T19:14:32;9.40;99.90
43862;DHT22;29510;52.140;5.034;2022-09-27T19:24:33;9.40;99.90
43862;DHT22;29510;52.140;5.034;2022-09-27T19:34:34;9.40;99.90
43862;DHT22;29510;52.140;5.034;2022-09-27T19:44:35;9.50;99.90
43862;DHT22;29510;52.140;5.034;2022-09-27T19:54:36;9.50;99.90
43862;DHT22;29510;52.140;5.034;2022-09-27T20:04:37;9.50;99.90
43862;DHT22;29510;52.140;5.034;2022-09-27T20:14:38;9.40;99.90
43862;DHT22;29510;52.140;5.034;2022-09-27T20:24:41;9.30;99.90
43862;DHT22;29510;52.140;5.034;2022-09-27T20:34:42;9.20;99.90
43862;DHT22;29510;52.140;5.034;2022-09-27T20:44:43;9.10;99.90
43862;DHT22;29510;52.140;5.034;2022-09-27T20:54:44;9.00;99.90
43862;DHT22;29510;52.140;5.034;2022-09-27T21:04:45;8.90;99.90
43862;DHT22;29510;52.140;5.034;2022-09-27T21:14:46;8.80;99.90
43862;DHT22;29510;52.140;5.034;2022-09-27T21:24:47;8.70;99.90
43862;DHT22;29510;52.140;5.034;2022-09-27T21:34:48;8.60;99.90
43862;DHT22;29510;52.140;5.034;2022-09-27T21:44:49;8.60;99.90
43862;DHT22;29510;52.140;5.034;2022-09-27T21:54:50;8.60;99.90
43862;DHT22;29510;52.140;5.034;2022-09-27T22:04:51;8.60;99.90
43862;DHT22;29510;52.140;5.034;2022-09-27T22:14:52;8.70;99.90
43862;DHT22;29510;52.140;5.034;2022-09-27T22:24:53;8.70;99.90
43862;DHT22;29510;52.140;5.034;2022-09-27T22:34:54;8.70;99.90
43862;DHT22;29510;52.140;5.034;2022-09-27T22:44:55;8.70;99.90
43862;DHT22;29510;52.140;5.034;2022-09-27T22:54:56;8.60;99.90
43862;DHT22;29510;52.140;5.034;2022-09-27T23:04:57;8.60;99.90
43862;DHT22;29510;52.140;5.034;2022-09-27T23:14:58;8.50;99.90
43862;DHT22;29510;52.140;5.034;2022-09-27T23:25:01;8.50;99.90
43862;DHT22;29510;52.140;5.034;2022-09-27T23:35:02;8.50;99.90
43862;DHT22;29510;52.140;5.034;2022-09-27T23:45:04;8.50;99.90
43862;DHT22;29510;52.140;5.034;2022-09-27T23:55:05;8.50;99.90
